sensor_id;sensor_type;location;lat;lon;timestamp;temperature;humidity
55365;DHT22;41245;45.384;20.390;2022-08-19T00:00:09;692.00;153.60
55365;DHT22;41245;45.384;20.390;2022-08-19T00:02:36;691.90;153.60
55365;DHT22;41245;45.384;20.390;2022-08-19T00:05:03;691.70;153.60
55365;DHT22;41245;45.384;20.390;2022-08-19T00:07:29;691.60;153.60
55365;DHT22;41245;45.384;20.390;2022-08-19T00:09:54;691.60;153.60
55365;DHT22;41245;45.384;20.390;2022-08-19T00:12:21;691.60;153.60
55365;DHT22;41245;45.384;20.390;2022-08-19T00:14:47;691.50;153.60
55365;DHT22;41245;45.384;20.390;2022-08-19T00:17:13;691.50;153.60
55365;DHT22;41245;45.384;20.390;2022-08-19T00:19:38;691.50;153.60
55365;DHT22;41245;45.384;20.390;2022-08-19T00:22:04;691.30;153.60
55365;DHT22;41245;45.384;20.390;2022-08-19T00:24:31;691.20;153.60
55365;DHT22;41245;45.384;20.390;2022-08-19T00:26:57;691.20;153.60
55365;DHT22;41245;45.384;20.390;2022-08-19T00:29:24;691.20;153.60
55365;DHT22;41245;45.384;20.390;2022-08-19T00:31:51;666.50;153.60
55365;DHT22;41245;45.384;20.390;2022-08-19T00:34:20;666.40;153.60
55365;DHT22;41245;45.384;20.390;2022-08-19T00:36:46;666.30;153.60
55365;DHT22;41245;45.384;20.390;2022-08-19T00:39:13;666.30;153.60
55365;DHT22;41245;45.384;20.390;2022-08-19T00:41:39;666.30;153.60
55365;DHT22;41245;45.384;20.390;2022-08-19T00:44:12;666.10;153.60
55365;DHT22;41245;45.384;20.390;2022-08-19T00:46:42;666.10;153.60
55365;DHT22;41245;45.384;20.390;2022-08-19T00:52:28;666.10;153.60
55365;DHT22;41245;45.384;20.390;2022-08-19T00:54:56;666.00;153.60
55365;DHT22;41245;45.384;20.390;2022-08-19T00:57:43;665.90;153.60
55365;DHT22;41245;45.384;20.390;2022-08-19T01:00:15;665.90;153.60
55365;DHT22;41245;45.384;20.390;2022-08-19T01:02:42;665.90;153.60
55365;DHT22;41245;45.384;20.390;2022-08-19T01:05:14;665.90;153.60
55365;DHT22;41245;45.384;20.390;2022-08-19T01:07:40;665.90;153.60
55365;DHT22;41245;45.384;20.390;2022-08-19T01:10:11;665.90;153.60
55365;DHT22;41245;45.384;20.390;2022-08-19T01:12:38;665.90;153.60
55365;DHT22;41245;45.384;20.390;2022-08-19T01:15:10;665.70;153.60
55365;DHT22;41245;45.384;20.390;2022-08-19T01:17:38;665.70;153.60
55365;DHT22;41245;45.384;20.390;2022-08-19T01:20:06;665.70;153.60
55365;DHT22;41245;45.384;20.390;2022-08-19T01:22:54;665.70;153.60
55365;DHT22;41245;45.384;20.390;2022-08-19T01:25:35;665.70;153.60
55365;DHT22;41245;45.384;20.390;2022-08-19T01:28:02;665.60;153.60
55365;DHT22;41245;45.384;20.390;2022-08-19T01:30:33;640.60;128.00
55365;DHT22;41245;45.384;20.390;2022-08-19T01:33:00;665.60;153.60
55365;DHT22;41245;45.384;20.390;2022-08-19T01:35:28;640.90;128.00
55365;DHT22;41245;45.384;20.390;2022-08-19T01:37:57;640.90;128.00
55365;DHT22;41245;45.384;20.390;2022-08-19T01:40:26;640.90;128.00
55365;DHT22;41245;45.384;20.390;2022-08-19T01:42:53;640.90;128.00
55365;DHT22;41245;45.384;20.390;2022-08-19T01:45:21;640.90;128.00
55365;DHT22;41245;45.384;20.390;2022-08-19T01:47:47;640.90;128.00
55365;DHT22;41245;45.384;20.390;2022-08-19T01:50:13;640.90;128.00
55365;DHT22;41245;45.384;20.390;2022-08-19T01:52:40;665.70;153.60
55365;DHT22;41245;45.384;20.390;2022-08-19T01:55:09;640.90;128.00
55365;DHT22;41245;45.384;20.390;2022-08-19T01:57:36;640.90;128.00
55365;DHT22;41245;45.384;20.390;2022-08-19T02:00:18;640.90;128.00
55365;DHT22;41245;45.384;20.390;2022-08-19T02:02:44;640.90;128.00
55365;DHT22;41245;45.384;20.390;2022-08-19T02:05:11;640.90;128.00
55365;DHT22;41245;45.384;20.390;2022-08-19T02:07:38;640.80;128.00
55365;DHT22;41245;45.384;20.390;2022-08-19T02:10:08;640.80;128.00
55365;DHT22;41245;45.384;20.390;2022-08-19T02:12:34;640.80;128.00
55365;DHT22;41245;45.384;20.390;2022-08-19T02:15:01;640.80;128.00
55365;DHT22;41245;45.384;20.390;2022-08-19T02:17:28;640.80;128.00
55365;DHT22;41245;45.384;20.390;2022-08-19T02:19:55;640.80;128.00
55365;DHT22;41245;45.384;20.390;2022-08-19T02:22:22;640.70;128.00
55365;DHT22;41245;45.384;20.390;2022-08-19T02:24:48;640.60;128.00
55365;DHT22;41245;45.384;20.390;2022-08-19T02:27:15;640.60;128.00
55365;DHT22;41245;45.384;20.390;2022-08-19T02:29:40;640.60;128.00
55365;DHT22;41245;45.384;20.390;2022-08-19T02:32:07;640.60;128.00
55365;DHT22;41245;45.384;20.390;2022-08-19T02:34:33;640.60;128.00
55365;DHT22;41245;45.384;20.390;2022-08-19T02:36:59;640.60;128.00
55365;DHT22;41245;45.384;20.390;2022-08-19T02:39:25;640.60;128.00
55365;DHT22;41245;45.384;20.390;2022-08-19T02:41:52;640.60;128.00
55365;DHT22;41245;45.384;20.390;2022-08-19T02:44:18;640.60;128.00
55365;DHT22;41245;45.384;20.390;2022-08-19T02:46:46;640.50;128.00
55365;DHT22;41245;45.384;20.390;2022-08-19T02:49:13;640.50;128.00
55365;DHT22;41245;45.384;20.390;2022-08-19T02:51:43;640.50;128.00
55365;DHT22;41245;45.384;20.390;2022-08-19T02:54:11;640.50;128.00
55365;DHT22;41245;45.384;20.390;2022-08-19T02:56:39;640.50;128.00
55365;DHT22;41245;45.384;20.390;2022-08-19T02:59:06;640.50;128.00
55365;DHT22;41245;45.384;20.390;2022-08-19T03:01:34;640.40;128.00
55365;DHT22;41245;45.384;20.390;2022-08-19T03:04:02;640.40;128.00
55365;DHT22;41245;45.384;20.390;2022-08-19T03:06:28;640.50;128.00
55365;DHT22;41245;45.384;20.390;2022-08-19T03:08:55;640.50;128.00
55365;DHT22;41245;45.384;20.390;2022-08-19T03:11:25;640.60;128.00
55365;DHT22;41245;45.384;20.390;2022-08-19T03:13:51;640.60;128.00
55365;DHT22;41245;45.384;20.390;2022-08-19T03:16:20;640.60;128.00
55365;DHT22;41245;45.384;20.390;2022-08-19T03:18:47;640.60;128.00
55365;DHT22;41245;45.384;20.390;2022-08-19T03:21:17;640.60;128.00
55365;DHT22;41245;45.384;20.390;2022-08-19T03:23:44;640.60;128.00
55365;DHT22;41245;45.384;20.390;2022-08-19T03:26:10;640.60;128.00
55365;DHT22;41245;45.384;20.390;2022-08-19T03:28:35;640.60;128.00
55365;DHT22;41245;45.384;20.390;2022-08-19T03:31:08;640.70;128.00
55365;DHT22;41245;45.384;20.390;2022-08-19T03:33:34;640.70;128.00
55365;DHT22;41245;45.384;20.390;2022-08-19T03:36:09;640.60;128.00
55365;DHT22;41245;45.384;20.390;2022-08-19T03:38:37;640.80;128.00
55365;DHT22;41245;45.384;20.390;2022-08-19T03:41:07;640.70;128.00
55365;DHT22;41245;45.384;20.390;2022-08-19T03:43:34;640.70;128.00
55365;DHT22;41245;45.384;20.390;2022-08-19T03:46:06;640.70;128.00
55365;DHT22;41245;45.384;20.390;2022-08-19T03:48:33;640.70;128.00
55365;DHT22;41245;45.384;20.390;2022-08-19T03:51:00;640.80;128.00
55365;DHT22;41245;45.384;20.390;2022-08-19T03:53:27;640.80;128.00
55365;DHT22;41245;45.384;20.390;2022-08-19T03:55:54;640.90;128.00
55365;DHT22;41245;45.384;20.390;2022-08-19T03:58:21;665.60;153.60
55365;DHT22;41245;45.384;20.390;2022-08-19T04:00:46;665.60;153.60
55365;DHT22;41245;45.384;20.390;2022-08-19T04:03:12;665.70;153.60
55365;DHT22;41245;45.384;20.390;2022-08-19T04:05:38;665.70;153.60
55365;DHT22;41245;45.384;20.390;2022-08-19T04:08:04;665.70;153.60
55365;DHT22;41245;45.384;20.390;2022-08-19T04:10:40;665.90;153.60
55365;DHT22;41245;45.384;20.390;2022-08-19T04:13:07;666.00;153.60
55365;DHT22;41245;45.384;20.390;2022-08-19T04:15:39;666.10;153.60
55365;DHT22;41245;45.384;20.390;2022-08-19T04:18:07;666.20;153.60
55365;DHT22;41245;45.384;20.390;2022-08-19T04:20:43;666.30;153.60
55365;DHT22;41245;45.384;20.390;2022-08-19T04:23:08;666.40;153.60
55365;DHT22;41245;45.384;20.390;2022-08-19T04:25:36;691.20;153.60
55365;DHT22;41245;45.384;20.390;2022-08-19T04:28:03;691.50;153.60
55365;DHT22;41245;45.384;20.390;2022-08-19T04:30:29;691.70;153.60
55365;DHT22;41245;45.384;20.390;2022-08-19T04:32:54;691.80;153.60
55365;DHT22;41245;45.384;20.390;2022-08-19T04:35:20;692.10;153.60
55365;DHT22;41245;45.384;20.390;2022-08-19T04:37:46;716.80;179.20
55365;DHT22;41245;45.384;20.390;2022-08-19T04:40:11;717.00;179.20
55365;DHT22;41245;45.384;20.390;2022-08-19T04:42:56;717.20;179.20
55365;DHT22;41245;45.384;20.390;2022-08-19T04:45:22;717.50;179.20
55365;DHT22;41245;45.384;20.390;2022-08-19T04:47:48;717.70;179.20
55365;DHT22;41245;45.384;20.390;2022-08-19T04:50:14;742.40;204.80
55365;DHT22;41245;45.384;20.390;2022-08-19T04:52:39;742.60;204.80
55365;DHT22;41245;45.384;20.390;2022-08-19T04:55:10;742.80;204.80
55365;DHT22;41245;45.384;20.390;2022-08-19T04:57:36;743.00;204.80
55365;DHT22;41245;45.384;20.390;2022-08-19T05:00:09;743.10;204.80
55365;DHT22;41245;45.384;20.390;2022-08-19T05:02:35;743.30;204.80
55365;DHT22;41245;45.384;20.390;2022-08-19T05:07:27;768.50;204.80
55365;DHT22;41245;45.384;20.390;2022-08-19T05:09:52;768.50;204.80
55365;DHT22;41245;45.384;20.390;2022-08-19T05:12:18;768.70;204.80
55365;DHT22;41245;45.384;20.390;2022-08-19T05:14:45;768.80;204.80
55365;DHT22;41245;45.384;20.390;2022-08-19T05:17:13;793.60;230.40
55365;DHT22;41245;45.384;20.390;2022-08-19T05:19:39;793.60;230.40
55365;DHT22;41245;45.384;20.390;2022-08-19T05:22:23;793.70;230.40
55365;DHT22;41245;45.384;20.390;2022-08-19T05:24:58;793.80;230.40
55365;DHT22;41245;45.384;20.390;2022-08-19T05:27:24;793.90;230.40
55365;DHT22;41245;45.384;20.390;2022-08-19T05:29:50;794.00;230.40
55365;DHT22;41245;45.384;20.390;2022-08-19T05:32:16;794.10;230.40
55365;DHT22;41245;45.384;20.390;2022-08-19T05:34:41;794.40;230.40
55365;DHT22;41245;45.384;20.390;2022-08-19T05:37:08;819.50;230.40
55365;DHT22;41245;45.384;20.390;2022-08-19T05:39:35;820.00;230.40
55365;DHT22;41245;45.384;20.390;2022-08-19T05:42:05;845.10;256.00
55365;DHT22;41245;45.384;20.390;2022-08-19T05:44:35;845.60;256.00
55365;DHT22;41245;45.384;20.390;2022-08-19T05:47:02;870.40;256.00
55365;DHT22;41245;45.384;20.390;2022-08-19T05:49:30;870.70;256.00
55365;DHT22;41245;45.384;20.390;2022-08-19T05:51:57;870.90;256.00
55365;DHT22;41245;45.384;20.390;2022-08-19T05:54:25;870.60;256.00
55365;DHT22;41245;45.384;20.390;2022-08-19T05:56:52;845.50;256.00
55365;DHT22;41245;45.384;20.390;2022-08-19T05:59:19;844.90;256.00
55365;DHT22;41245;45.384;20.390;2022-08-19T06:01:48;844.80;256.00
55365;DHT22;41245;45.384;20.390;2022-08-19T06:04:18;820.00;230.40
55365;DHT22;41245;45.384;20.390;2022-08-19T06:06:48;819.70;230.40
55365;DHT22;41245;45.384;20.390;2022-08-19T06:09:14;819.70;230.40
55365;DHT22;41245;45.384;20.390;2022-08-19T06:11:43;819.80;230.40
55365;DHT22;41245;45.384;20.390;2022-08-19T06:14:15;819.70;230.40
55365;DHT22;41245;45.384;20.390;2022-08-19T06:16:43;819.70;230.40
55365;DHT22;41245;45.384;20.390;2022-08-19T06:19:14;819.70;230.40
55365;DHT22;41245;45.384;20.390;2022-08-19T06:21:44;819.70;230.40
55365;DHT22;41245;45.384;20.390;2022-08-19T06:24:13;819.70;230.40
55365;DHT22;41245;45.384;20.390;2022-08-19T06:26:41;819.70;230.40
55365;DHT22;41245;45.384;20.390;2022-08-19T06:29:08;819.70;230.40
55365;DHT22;41245;45.384;20.390;2022-08-19T06:31:36;819.80;230.40
55365;DHT22;41245;45.384;20.390;2022-08-19T06:34:04;819.90;230.40
55365;DHT22;41245;45.384;20.390;2022-08-19T06:36:31;819.70;230.40
55365;DHT22;41245;45.384;20.390;2022-08-19T06:39:07;819.90;230.40
55365;DHT22;41245;45.384;20.390;2022-08-19T06:41:39;819.90;230.40
55365;DHT22;41245;45.384;20.390;2022-08-19T06:44:06;820.10;230.40
55365;DHT22;41245;45.384;20.390;2022-08-19T06:46:32;820.00;230.40
55365;DHT22;41245;45.384;20.390;2022-08-19T06:48:58;820.10;230.40
55365;DHT22;41245;45.384;20.390;2022-08-19T06:51:24;820.10;230.40
55365;DHT22;41245;45.384;20.390;2022-08-19T06:53:53;844.80;256.00
55365;DHT22;41245;45.384;20.390;2022-08-19T06:56:23;844.80;256.00
55365;DHT22;41245;45.384;20.390;2022-08-19T06:58:51;844.90;256.00
55365;DHT22;41245;45.384;20.390;2022-08-19T07:01:18;845.10;256.00
55365;DHT22;41245;45.384;20.390;2022-08-19T07:03:44;845.10;256.00
55365;DHT22;41245;45.384;20.390;2022-08-19T07:06:15;845.20;256.00
55365;DHT22;41245;45.384;20.390;2022-08-19T07:08:46;845.20;256.00
55365;DHT22;41245;45.384;20.390;2022-08-19T07:11:15;845.30;256.00
55365;DHT22;41245;45.384;20.390;2022-08-19T07:13:42;845.40;256.00
55365;DHT22;41245;45.384;20.390;2022-08-19T07:16:13;845.60;256.00
55365;DHT22;41245;45.384;20.390;2022-08-19T07:18:39;845.70;256.00
55365;DHT22;41245;45.384;20.390;2022-08-19T07:21:07;870.50;256.00
55365;DHT22;41245;45.384;20.390;2022-08-19T07:23:33;870.60;256.00
55365;DHT22;41245;45.384;20.390;2022-08-19T07:26:19;870.70;256.00
55365;DHT22;41245;45.384;20.390;2022-08-19T07:28:47;870.70;256.00
55365;DHT22;41245;45.384;20.390;2022-08-19T07:31:15;870.80;256.00
55365;DHT22;41245;45.384;20.390;2022-08-19T07:33:44;870.90;256.00
55365;DHT22;41245;45.384;20.390;2022-08-19T07:36:11;871.10;256.00
55365;DHT22;41245;45.384;20.390;2022-08-19T07:38:39;871.10;256.00
55365;DHT22;41245;45.384;20.390;2022-08-19T07:41:06;871.30;256.00
55365;DHT22;41245;45.384;20.390;2022-08-19T07:43:32;871.30;256.00
55365;DHT22;41245;45.384;20.390;2022-08-19T07:45:58;871.30;256.00
55365;DHT22;41245;45.384;20.390;2022-08-19T07:48:25;871.30;256.00
55365;DHT22;41245;45.384;20.390;2022-08-19T07:50:57;871.30;256.00
55365;DHT22;41245;45.384;20.390;2022-08-19T07:53:28;896.00;256.00
55365;DHT22;41245;45.384;20.390;2022-08-19T07:55:54;896.10;256.00
55365;DHT22;41245;45.384;20.390;2022-08-19T07:58:21;896.20;256.00
55365;DHT22;41245;45.384;20.390;2022-08-19T16:51:55;870.40;256.00
55365;DHT22;41245;45.384;20.390;2022-08-19T16:54:21;845.60;256.00
55365;DHT22;41245;45.384;20.390;2022-08-19T16:56:47;845.30;256.00
55365;DHT22;41245;45.384;20.390;2022-08-19T16:59:14;845.30;256.00
55365;DHT22;41245;45.384;20.390;2022-08-19T17:01:41;845.20;256.00
55365;DHT22;41245;45.384;20.390;2022-08-19T17:04:11;845.10;256.00
55365;DHT22;41245;45.384;20.390;2022-08-19T17:06:38;845.10;256.00
55365;DHT22;41245;45.384;20.390;2022-08-19T17:09:05;845.10;256.00
55365;DHT22;41245;45.384;20.390;2022-08-19T17:11:32;845.10;256.00
55365;DHT22;41245;45.384;20.390;2022-08-19T17:14:02;845.00;256.00
55365;DHT22;41245;45.384;20.390;2022-08-19T17:16:32;844.90;256.00
55365;DHT22;41245;45.384;20.390;2022-08-19T17:19:00;844.80;256.00
55365;DHT22;41245;45.384;20.390;2022-08-19T17:21:29;844.80;256.00
55365;DHT22;41245;45.384;20.390;2022-08-19T17:23:57;820.10;230.40
55365;DHT22;41245;45.384;20.390;2022-08-19T17:26:23;820.10;230.40
55365;DHT22;41245;45.384;20.390;2022-08-19T17:28:51;820.10;230.40
55365;DHT22;41245;45.384;20.390;2022-08-19T17:31:19;820.00;230.40
55365;DHT22;41245;45.384;20.390;2022-08-19T17:33:45;820.00;230.40
55365;DHT22;41245;45.384;20.390;2022-08-19T17:36:11;819.90;230.40
55365;DHT22;41245;45.384;20.390;2022-08-19T17:38:38;819.90;230.40
55365;DHT22;41245;45.384;20.390;2022-08-19T17:41:04;819.90;230.40
55365;DHT22;41245;45.384;20.390;2022-08-19T17:43:34;819.80;230.40
55365;DHT22;41245;45.384;20.390;2022-08-19T17:46:00;819.80;230.40
55365;DHT22;41245;45.384;20.390;2022-08-19T17:48:30;819.80;230.40
55365;DHT22;41245;45.384;20.390;2022-08-19T17:50:56;819.70;230.40
55365;DHT22;41245;45.384;20.390;2022-08-19T17:53:22;819.70;230.40
55365;DHT22;41245;45.384;20.390;2022-08-19T17:55:48;819.70;230.40
55365;DHT22;41245;45.384;20.390;2022-08-19T17:58:14;819.70;230.40
55365;DHT22;41245;45.384;20.390;2022-08-19T18:00:41;819.50;230.40
55365;DHT22;41245;45.384;20.390;2022-08-19T18:03:06;819.30;230.40
55365;DHT22;41245;45.384;20.390;2022-08-19T18:05:40;819.20;230.40
55365;DHT22;41245;45.384;20.390;2022-08-19T18:08:06;794.40;230.40
55365;DHT22;41245;45.384;20.390;2022-08-19T18:10:35;794.10;230.40
55365;DHT22;41245;45.384;20.390;2022-08-19T18:13:03;793.90;230.40
55365;DHT22;41245;45.384;20.390;2022-08-19T18:15:30;793.60;230.40
55365;DHT22;41245;45.384;20.390;2022-08-19T18:17:56;768.60;204.80
55365;DHT22;41245;45.384;20.390;2022-08-19T18:20:23;768.60;204.80
55365;DHT22;41245;45.384;20.390;2022-08-19T18:22:49;768.40;204.80
55365;DHT22;41245;45.384;20.390;2022-08-19T18:25:21;768.30;204.80
55365;DHT22;41245;45.384;20.390;2022-08-19T18:27:54;768.10;204.80
55365;DHT22;41245;45.384;20.390;2022-08-19T18:30:21;768.00;204.80
55365;DHT22;41245;45.384;20.390;2022-08-19T18:32:48;743.30;204.80
55365;DHT22;41245;45.384;20.390;2022-08-19T18:35:26;743.20;204.80
55365;DHT22;41245;45.384;20.390;2022-08-19T18:37:55;743.20;204.80
55365;DHT22;41245;45.384;20.390;2022-08-19T18:40:22;743.00;204.80
55365;DHT22;41245;45.384;20.390;2022-08-19T18:43:08;743.00;204.80
55365;DHT22;41245;45.384;20.390;2022-08-19T18:46:02;742.80;204.80
55365;DHT22;41245;45.384;20.390;2022-08-19T18:48:47;742.60;204.80
55365;DHT22;41245;45.384;20.390;2022-08-19T18:51:31;742.60;204.80
55365;DHT22;41245;45.384;20.390;2022-08-19T18:53:58;742.50;204.80
55365;DHT22;41245;45.384;20.390;2022-08-19T18:56:25;742.40;204.80
55365;DHT22;41245;45.384;20.390;2022-08-19T18:58:57;717.70;179.20
55365;DHT22;41245;45.384;20.390;2022-08-19T19:01:34;717.60;179.20
55365;DHT22;41245;45.384;20.390;2022-08-19T19:04:05;717.50;179.20
55365;DHT22;41245;45.384;20.390;2022-08-19T19:06:33;717.40;179.20
55365;DHT22;41245;45.384;20.390;2022-08-19T19:09:04;717.30;179.20
55365;DHT22;41245;45.384;20.390;2022-08-19T19:11:34;717.40;179.20
55365;DHT22;41245;45.384;20.390;2022-08-19T19:14:03;717.40;179.20
55365;DHT22;41245;45.384;20.390;2022-08-19T19:16:30;717.30;179.20
55365;DHT22;41245;45.384;20.390;2022-08-19T19:18:57;717.20;179.20
55365;DHT22;41245;45.384;20.390;2022-08-19T19:21:24;717.30;179.20
55365;DHT22;41245;45.384;20.390;2022-08-19T19:23:54;717.30;179.20
55365;DHT22;41245;45.384;20.390;2022-08-19T19:26:20;717.30;179.20
55365;DHT22;41245;45.384;20.390;2022-08-19T19:28:46;717.30;179.20
55365;DHT22;41245;45.384;20.390;2022-08-19T19:31:21;717.50;179.20
55365;DHT22;41245;45.384;20.390;2022-08-19T19:33:47;717.50;179.20
55365;DHT22;41245;45.384;20.390;2022-08-19T19:36:14;717.50;179.20
55365;DHT22;41245;45.384;20.390;2022-08-19T19:38:41;717.60;179.20
55365;DHT22;41245;45.384;20.390;2022-08-19T19:41:09;717.60;179.20
55365;DHT22;41245;45.384;20.390;2022-08-19T19:43:35;717.60;179.20
55365;DHT22;41245;45.384;20.390;2022-08-19T19:46:01;717.60;179.20
55365;DHT22;41245;45.384;20.390;2022-08-19T19:48:27;717.60;179.20
55365;DHT22;41245;45.384;20.390;2022-08-19T19:50:54;717.60;179.20
55365;DHT22;41245;45.384;20.390;2022-08-19T19:53:22;717.70;179.20
55365;DHT22;41245;45.384;20.390;2022-08-19T19:55:48;742.40;204.80
55365;DHT22;41245;45.384;20.390;2022-08-19T19:58:15;742.40;204.80
55365;DHT22;41245;45.384;20.390;2022-08-19T20:00:41;717.70;179.20
55365;DHT22;41245;45.384;20.390;2022-08-19T20:03:07;717.70;179.20
55365;DHT22;41245;45.384;20.390;2022-08-19T20:05:33;717.70;179.20
55365;DHT22;41245;45.384;20.390;2022-08-19T20:07:59;717.60;179.20
55365;DHT22;41245;45.384;20.390;2022-08-19T20:10:43;717.60;179.20
55365;DHT22;41245;45.384;20.390;2022-08-19T20:13:10;717.60;179.20
55365;DHT22;41245;45.384;20.390;2022-08-19T20:15:36;717.60;179.20
55365;DHT22;41245;45.384;20.390;2022-08-19T20:18:02;717.60;179.20
55365;DHT22;41245;45.384;20.390;2022-08-19T20:20:29;717.70;179.20
55365;DHT22;41245;45.384;20.390;2022-08-19T20:22:56;742.40;204.80
55365;DHT22;41245;45.384;20.390;2022-08-19T20:25:23;742.40;204.80
55365;DHT22;41245;45.384;20.390;2022-08-19T20:27:49;742.50;204.80
55365;DHT22;41245;45.384;20.390;2022-08-19T20:30:17;742.40;204.80
55365;DHT22;41245;45.384;20.390;2022-08-19T20:32:43;742.40;204.80
55365;DHT22;41245;45.384;20.390;2022-08-19T20:35:12;742.40;204.80
55365;DHT22;41245;45.384;20.390;2022-08-19T20:37:38;742.40;204.80
55365;DHT22;41245;45.384;20.390;2022-08-19T20:40:07;742.40;204.80
55365;DHT22;41245;45.384;20.390;2022-08-19T20:42:39;742.40;204.80
55365;DHT22;41245;45.384;20.390;2022-08-19T20:45:08;742.40;204.80
55365;DHT22;41245;45.384;20.390;2022-08-19T20:47:34;742.40;204.80
55365;DHT22;41245;45.384;20.390;2022-08-19T20:50:03;717.70;179.20
55365;DHT22;41245;45.384;20.390;2022-08-19T20:52:29;742.50;204.80
55365;DHT22;41245;45.384;20.390;2022-08-19T20:54:55;742.50;204.80
55365;DHT22;41245;45.384;20.390;2022-08-19T20:57:21;742.40;204.80
55365;DHT22;41245;45.384;20.390;2022-08-19T20:59:47;717.70;179.20
55365;DHT22;41245;45.384;20.390;2022-08-19T21:02:13;717.60;179.20
55365;DHT22;41245;45.384;20.390;2022-08-19T21:04:39;717.60;179.20
55365;DHT22;41245;45.384;20.390;2022-08-19T21:07:05;717.60;179.20
55365;DHT22;41245;45.384;20.390;2022-08-19T21:09:33;717.40;179.20
55365;DHT22;41245;45.384;20.390;2022-08-19T21:12:03;717.20;179.20
55365;DHT22;41245;45.384;20.390;2022-08-19T21:14:29;716.90;179.20
55365;DHT22;41245;45.384;20.390;2022-08-19T21:16:55;716.90;179.20
55365;DHT22;41245;45.384;20.390;2022-08-19T21:19:21;716.80;179.20
55365;DHT22;41245;45.384;20.390;2022-08-19T21:21:47;692.10;153.60
55365;DHT22;41245;45.384;20.390;2022-08-19T21:24:13;692.10;153.60
55365;DHT22;41245;45.384;20.390;2022-08-19T21:26:39;692.10;153.60
55365;DHT22;41245;45.384;20.390;2022-08-19T21:29:05;716.90;179.20
55365;DHT22;41245;45.384;20.390;2022-08-19T21:31:31;716.80;179.20
55365;DHT22;41245;45.384;20.390;2022-08-19T21:33:57;716.80;179.20
55365;DHT22;41245;45.384;20.390;2022-08-19T21:36:23;692.10;153.60
55365;DHT22;41245;45.384;20.390;2022-08-19T21:38:49;692.10;153.60
55365;DHT22;41245;45.384;20.390;2022-08-19T21:41:15;692.10;153.60
55365;DHT22;41245;45.384;20.390;2022-08-19T21:43:40;692.10;153.60
55365;DHT22;41245;45.384;20.390;2022-08-19T21:46:06;692.10;153.60
55365;DHT22;41245;45.384;20.390;2022-08-19T21:48:33;692.00;153.60
55365;DHT22;41245;45.384;20.390;2022-08-19T21:50:59;691.80;153.60
55365;DHT22;41245;45.384;20.390;2022-08-19T21:53:25;666.20;153.60
55365;DHT22;41245;45.384;20.390;2022-08-19T21:55:51;691.20;153.60
55365;DHT22;41245;45.384;20.390;2022-08-19T21:58:16;691.50;153.60
55365;DHT22;41245;45.384;20.390;2022-08-19T22:00:42;691.30;153.60
55365;DHT22;41245;45.384;20.390;2022-08-19T22:03:08;691.50;153.60
55365;DHT22;41245;45.384;20.390;2022-08-19T22:05:34;691.60;153.60
55365;DHT22;41245;45.384;20.390;2022-08-19T22:08:01;691.70;153.60
55365;DHT22;41245;45.384;20.390;2022-08-19T22:10:31;691.70;153.60
55365;DHT22;41245;45.384;20.390;2022-08-19T22:12:58;691.70;153.60
55365;DHT22;41245;45.384;20.390;2022-08-19T22:15:24;691.70;153.60
55365;DHT22;41245;45.384;20.390;2022-08-19T22:17:51;691.70;153.60
55365;DHT22;41245;45.384;20.390;2022-08-19T22:20:22;691.90;153.60
55365;DHT22;41245;45.384;20.390;2022-08-19T22:22:52;692.00;153.60
55365;DHT22;41245;45.384;20.390;2022-08-19T22:25:32;692.00;153.60
55365;DHT22;41245;45.384;20.390;2022-08-19T22:28:00;692.10;153.60
55365;DHT22;41245;45.384;20.390;2022-08-19T22:30:26;692.10;153.60
55365;DHT22;41245;45.384;20.390;2022-08-19T22:32:55;692.10;153.60
55365;DHT22;41245;45.384;20.390;2022-08-19T22:35:25;691.90;153.60
55365;DHT22;41245;45.384;20.390;2022-08-19T22:37:54;716.80;179.20
55365;DHT22;41245;45.384;20.390;2022-08-19T22:40:19;716.80;179.20
55365;DHT22;41245;45.384;20.390;2022-08-19T22:42:45;716.90;179.20
55365;DHT22;41245;45.384;20.390;2022-08-19T22:45:15;717.00;179.20
55365;DHT22;41245;45.384;20.390;2022-08-19T22:47:41;717.10;179.20
55365;DHT22;41245;45.384;20.390;2022-08-19T22:50:08;717.10;179.20
55365;DHT22;41245;45.384;20.390;2022-08-19T22:52:34;717.10;179.20
55365;DHT22;41245;45.384;20.390;2022-08-19T22:55:04;717.10;179.20
55365;DHT22;41245;45.384;20.390;2022-08-19T22:57:30;717.10;179.20
55365;DHT22;41245;45.384;20.390;2022-08-19T22:59:56;717.20;179.20
55365;DHT22;41245;45.384;20.390;2022-08-19T23:02:30;717.20;179.20
55365;DHT22;41245;45.384;20.390;2022-08-19T23:04:56;717.30;179.20
55365;DHT22;41245;45.384;20.390;2022-08-19T23:07:25;717.40;179.20
55365;DHT22;41245;45.384;20.390;2022-08-19T23:09:51;717.50;179.20
55365;DHT22;41245;45.384;20.390;2022-08-19T23:12:29;717.50;179.20
55365;DHT22;41245;45.384;20.390;2022-08-19T23:15:10;717.50;179.20
55365;DHT22;41245;45.384;20.390;2022-08-19T23:17:37;717.50;179.20
55365;DHT22;41245;45.384;20.390;2022-08-19T23:20:06;717.60;179.20
55365;DHT22;41245;45.384;20.390;2022-08-19T23:22:32;717.60;179.20
55365;DHT22;41245;45.384;20.390;2022-08-19T23:25:08;717.60;179.20
55365;DHT22;41245;45.384;20.390;2022-08-19T23:27:34;717.60;179.20
55365;DHT22;41245;45.384;20.390;2022-08-19T23:30:18;717.50;179.20
55365;DHT22;41245;45.384;20.390;2022-08-19T23:32:51;717.50;179.20
55365;DHT22;41245;45.384;20.390;2022-08-19T23:35:18;717.50;179.20
55365;DHT22;41245;45.384;20.390;2022-08-19T23:37:43;717.40;179.20
55365;DHT22;41245;45.384;20.390;2022-08-19T23:40:09;717.40;179.20
55365;DHT22;41245;45.384;20.390;2022-08-19T23:42:39;717.40;179.20
55365;DHT22;41245;45.384;20.390;2022-08-19T23:45:07;717.30;179.20
55365;DHT22;41245;45.384;20.390;2022-08-19T23:47:34;717.20;179.20
55365;DHT22;41245;45.384;20.390;2022-08-19T23:50:03;717.20;179.20